createdAt,value
2019-05-13T00:01:47.714Z,18.40
2019-05-13T00:04:18.847Z,16.67
2019-05-13T00:06:54.522Z,16.62
2019-05-13T00:09:24.477Z,16.05
2019-05-13T00:11:56.043Z,16.35
2019-05-13T00:14:27.627Z,17.45
2019-05-13T00:16:59.495Z,16.95
2019-05-13T00:22:03.728Z,17.07
2019-05-13T00:24:34.986Z,18.30
2019-05-13T00:27:06.346Z,18.40
2019-05-13T00:29:37.985Z,17.57
2019-05-13T00:32:09.029Z,18.60
2019-05-13T00:34:40.768Z,18.25
2019-05-13T00:39:44.295Z,18.98
2019-05-13T00:42:16.161Z,15.88
2019-05-13T00:47:17.847Z,16.05
2019-05-13T00:49:49.002Z,15.90
2019-05-13T00:52:20.140Z,15.23
2019-05-13T00:54:53.491Z,16.37
2019-05-13T00:57:24.424Z,17.60
2019-05-13T00:59:55.903Z,15.68
2019-05-13T01:02:27.639Z,18.70
2019-05-13T01:07:29.389Z,15.08
2019-05-13T01:10:00.618Z,14.98
2019-05-13T01:12:34.279Z,15.70
2019-05-13T01:15:05.849Z,16.23
2019-05-13T01:17:37.111Z,16.80
2019-05-13T01:20:09.866Z,15.53
2019-05-13T01:22:43.818Z,15.93
2019-05-13T01:25:15.119Z,18.02
2019-05-13T01:27:46.696Z,15.50
2019-05-13T01:30:18.885Z,14.47
2019-05-13T01:32:50.282Z,16.67
2019-05-13T01:35:23.590Z,16.60
2019-05-13T01:37:55.176Z,17.45
2019-05-13T01:42:56.912Z,14.45
2019-05-13T01:49:09.690Z,13.78
2019-05-13T01:51:40.622Z,13.45
2019-05-13T01:54:14.248Z,14.35
2019-05-13T01:56:45.279Z,14.38
2019-05-13T02:01:47.471Z,13.60
2019-05-13T02:06:49.451Z,14.05
2019-05-13T02:09:20.758Z,14.75
2019-05-13T02:11:53.805Z,14.45
2019-05-13T02:14:25.145Z,14.20
2019-05-13T02:19:26.811Z,11.95
2019-05-13T02:24:28.599Z,12.95
2019-05-13T02:27:00.165Z,19.32
2019-05-13T02:32:04.086Z,11.43
2019-05-13T02:34:35.931Z,11.83
2019-05-13T02:37:07.144Z,11.55
2019-05-13T02:39:38.731Z,11.85
2019-05-13T02:44:43.478Z,11.05
2019-05-13T02:47:13.508Z,10.75
2019-05-13T02:49:44.740Z,10.68
2019-05-13T02:52:16.408Z,11.60
2019-05-13T02:57:18.287Z,10.85
2019-05-13T03:02:22.203Z,9.93
2019-05-13T03:04:53.251Z,10.93
2019-05-13T03:07:25.019Z,11.03
2019-05-13T03:09:56.468Z,11.70
2019-05-13T03:14:57.732Z,11.12
2019-05-13T03:17:32.690Z,10.40
2019-05-13T03:20:04.243Z,9.48
2019-05-13T03:22:36.115Z,10.48
2019-05-13T03:25:08.867Z,9.50
2019-05-13T03:27:42.699Z,10.00
2019-05-13T03:30:16.527Z,10.32
2019-05-13T03:32:55.165Z,10.08
2019-05-13T03:35:25.785Z,10.13
2019-05-13T03:37:52.973Z,10.00
2019-05-13T03:40:24.487Z,10.65
2019-05-13T03:45:27.418Z,10.10
2019-05-13T03:48:04.064Z,9.48
2019-05-13T03:50:34.842Z,10.08
2019-05-13T03:53:07.154Z,9.65
2019-05-13T03:55:38.928Z,10.25
2019-05-13T03:58:13.105Z,10.45
2019-05-13T04:00:44.263Z,10.82
2019-05-13T04:03:16.113Z,10.75
2019-05-13T04:05:48.073Z,11.35
2019-05-13T04:08:22.705Z,10.20
2019-05-13T04:10:52.698Z,10.05
2019-05-13T04:15:55.568Z,9.98
2019-05-13T04:18:27.205Z,9.03
2019-05-13T04:21:02.374Z,8.80
2019-05-13T04:23:32.493Z,9.08
2019-05-13T04:26:04.255Z,9.65
2019-05-13T04:28:36.073Z,7.97
2019-05-13T04:31:07.733Z,9.35
2019-05-13T04:33:42.400Z,8.08
2019-05-13T04:36:13.539Z,8.68
2019-05-13T04:38:45.499Z,9.03
2019-05-13T04:41:17.386Z,8.50
2019-05-13T04:43:49.087Z,8.20
2019-05-13T04:46:22.881Z,7.80
2019-05-13T04:48:53.871Z,8.38
2019-05-13T04:51:25.191Z,7.95
2019-05-13T04:53:57.466Z,8.10
2019-05-13T04:56:29.015Z,8.20
2019-05-13T04:59:02.982Z,7.62
2019-05-13T05:01:40.533Z,8.53
2019-05-13T05:04:22.533Z,9.40
2019-05-13T05:06:46.598Z,7.87
2019-05-13T05:09:22.526Z,9.70
2019-05-13T05:11:55.694Z,9.98
2019-05-13T05:14:29.024Z,9.70
2019-05-13T05:17:03.442Z,9.30
2019-05-13T05:19:37.806Z,8.70
2019-05-13T05:22:13.475Z,8.63
2019-05-13T05:25:04.396Z,7.97
2019-05-13T05:27:38.150Z,7.78
2019-05-13T05:30:12.194Z,8.20
2019-05-13T05:32:45.435Z,9.18
2019-05-13T05:35:18.722Z,8.60
2019-05-13T05:37:52.333Z,9.20
2019-05-13T05:40:31.263Z,8.75
2019-05-13T05:43:02.340Z,7.65
2019-05-13T05:45:35.834Z,9.00
2019-05-13T05:48:11.766Z,8.93
2019-05-13T05:50:44.375Z,7.85
2019-05-13T05:53:17.733Z,7.75
2019-05-13T05:55:51.770Z,8.28
2019-05-13T05:58:25.168Z,7.67
2019-05-13T06:00:58.182Z,8.95
2019-05-13T06:03:32.752Z,7.42
2019-05-13T06:06:05.224Z,7.58
2019-05-13T06:08:37.212Z,7.83
2019-05-13T06:11:09.123Z,8.03
2019-05-13T06:13:43.435Z,7.62
2019-05-13T06:16:15.117Z,7.50
2019-05-13T06:21:17.071Z,7.17
2019-05-13T06:26:19.149Z,6.90
2019-05-13T06:28:52.085Z,7.08
2019-05-13T06:31:24.105Z,8.05
2019-05-13T06:33:55.841Z,8.30
2019-05-13T06:38:58.135Z,8.10
2019-05-13T06:44:02.159Z,24.35
2019-05-13T06:46:32.453Z,7.87
2019-05-13T06:49:03.988Z,9.03
2019-05-13T06:51:35.732Z,10.20
2019-05-13T06:56:38.166Z,10.32
2019-05-13T07:01:43.641Z,8.75
2019-05-13T07:04:15.443Z,9.08
2019-05-13T07:06:47.205Z,9.50
2019-05-13T07:11:51.700Z,9.50
2019-05-13T07:14:22.472Z,9.70
2019-05-13T07:19:24.763Z,10.00
2019-05-13T07:24:27.156Z,10.18
2019-05-13T07:26:58.330Z,10.18
2019-05-13T07:29:32.183Z,10.60
2019-05-13T07:32:02.562Z,9.35
2019-05-13T07:34:34.188Z,9.58
2019-05-13T07:37:05.877Z,10.05
2019-05-13T07:42:09.178Z,9.80
2019-05-13T07:44:41.850Z,9.93
2019-05-13T07:47:15.853Z,9.28
2019-05-13T07:49:46.615Z,9.75
2019-05-13T07:52:18.262Z,10.13
2019-05-13T07:54:51.892Z,10.78
2019-05-13T07:57:23.049Z,10.58
2019-05-13T07:59:54.276Z,10.55
2019-05-13T08:02:25.460Z,10.72
2019-05-13T08:04:56.636Z,10.32
2019-05-13T08:07:48.264Z,10.40
2019-05-13T08:10:21.766Z,10.88
2019-05-13T08:12:54.368Z,10.60
2019-05-13T08:15:25.692Z,11.33
2019-05-13T08:20:26.831Z,12.43
2019-05-13T08:22:58.540Z,10.40
2019-05-13T08:25:31.605Z,10.25
2019-05-13T08:28:03.494Z,10.03
2019-05-13T08:30:35.250Z,10.10
2019-05-13T08:33:06.672Z,10.82
2019-05-13T08:35:37.833Z,10.65
2019-05-13T08:38:09.186Z,10.03
2019-05-13T08:40:42.417Z,9.50
2019-05-13T08:43:13.709Z,11.18
2019-05-13T08:45:45.726Z,10.40
2019-05-13T08:48:22.161Z,9.43
2019-05-13T08:50:54.021Z,9.18
2019-05-13T08:53:25.271Z,8.95
2019-05-13T08:55:57.260Z,9.10
2019-05-13T08:58:28.903Z,8.65
2019-05-13T09:01:02.293Z,10.00
2019-05-13T09:03:33.960Z,8.88
2019-05-13T09:06:05.685Z,8.85
2019-05-13T09:11:07.652Z,8.53
2019-05-13T09:13:39.344Z,9.23
2019-05-13T09:21:14.417Z,10.10
2019-05-13T09:26:15.794Z,10.30
2019-05-13T09:28:47.579Z,10.32
2019-05-13T09:33:56.608Z,9.78
2019-05-13T09:36:27.712Z,8.90
2019-05-13T09:39:01.857Z,9.55
2019-05-13T09:41:38.423Z,9.23
2019-05-13T09:44:05.490Z,9.65
2019-05-13T09:49:18.614Z,10.53
2019-05-13T09:51:41.714Z,10.50
2019-05-13T09:54:13.757Z,10.55
2019-05-13T09:59:16.349Z,9.40
2019-05-13T10:01:48.085Z,9.60
2019-05-13T10:04:21.981Z,10.05
2019-05-13T10:06:52.401Z,9.08
2019-05-13T10:09:24.018Z,10.10
2019-05-13T10:11:55.427Z,10.18
2019-05-13T10:14:27.203Z,10.08
2019-05-13T10:16:58.747Z,10.25
2019-05-13T10:19:32.238Z,10.35
2019-05-13T10:22:04.112Z,10.35
2019-05-13T10:24:36.007Z,10.35
2019-05-13T10:27:08.155Z,10.48
2019-05-13T10:29:42.191Z,11.12
2019-05-13T10:32:12.479Z,10.98
2019-05-13T10:34:44.759Z,10.97
2019-05-13T10:37:16.528Z,12.15
2019-05-13T10:39:47.458Z,12.15
2019-05-13T10:42:18.764Z,13.70
2019-05-13T10:44:52.317Z,13.32
2019-05-13T10:47:23.018Z,13.55
2019-05-13T10:49:54.507Z,10.85
2019-05-13T10:52:26.055Z,10.55
2019-05-13T10:54:57.808Z,11.97
2019-05-13T10:57:48.019Z,13.28
2019-05-13T11:00:18.675Z,13.15
2019-05-13T11:02:49.851Z,12.85
2019-05-13T11:05:22.822Z,14.50
2019-05-13T11:07:53.134Z,13.08
2019-05-13T11:10:26.576Z,13.13
2019-05-13T11:12:57.802Z,14.00
2019-05-13T11:15:32.846Z,14.27
2019-05-13T11:18:03.054Z,13.25
2019-05-13T11:20:34.168Z,13.45
2019-05-13T11:23:05.001Z,13.15
2019-05-13T11:25:36.335Z,13.55
2019-05-13T11:28:07.339Z,15.08
2019-05-13T11:30:38.553Z,12.88
2019-05-13T11:33:10.416Z,12.82
2019-05-13T11:35:42.028Z,14.55
2019-05-13T11:38:12.879Z,13.62
2019-05-13T11:40:44.854Z,14.70
2019-05-13T11:43:16.609Z,15.23
2019-05-13T11:45:48.356Z,14.65
2019-05-13T11:48:23.169Z,13.40
2019-05-13T11:50:54.172Z,13.30
2019-05-13T11:53:32.819Z,13.62
2019-05-13T11:56:03.233Z,13.72
2019-05-13T11:58:32.604Z,13.43
2019-05-13T12:01:05.156Z,14.00
2019-05-13T12:03:37.217Z,14.15
2019-05-13T12:06:09.190Z,14.93
2019-05-13T12:08:49.826Z,15.55
2019-05-13T12:11:14.354Z,16.25
2019-05-13T12:13:45.880Z,16.02
2019-05-13T12:16:17.779Z,16.30
2019-05-13T12:18:51.203Z,15.28
2019-05-13T12:21:22.078Z,15.32
2019-05-13T12:23:54.383Z,15.30
2019-05-13T12:26:26.131Z,16.62
2019-05-13T12:28:57.891Z,15.48
2019-05-13T12:31:33.385Z,15.98
2019-05-13T12:34:03.635Z,15.90
2019-05-13T12:36:35.850Z,16.32
2019-05-13T12:39:13.799Z,17.12
2019-05-13T12:41:43.033Z,16.60
2019-05-13T12:44:14.898Z,16.42
2019-05-13T12:46:50.108Z,16.93
2019-05-13T12:49:21.469Z,16.90
2019-05-13T12:51:57.068Z,16.57
2019-05-13T12:54:24.811Z,16.62
2019-05-13T12:56:56.681Z,15.78
2019-05-13T12:59:31.554Z,15.20
2019-05-13T13:02:03.167Z,16.15
2019-05-13T13:04:34.572Z,15.58
2019-05-13T13:07:06.177Z,16.53
2019-05-13T13:09:37.925Z,15.70
2019-05-13T13:12:09.678Z,15.72
2019-05-13T13:14:44.300Z,14.68
2019-05-13T13:17:13.909Z,14.68
2019-05-13T13:19:45.365Z,14.75
2019-05-13T13:22:17.017Z,14.85
2019-05-13T13:24:55.758Z,14.93
2019-05-13T13:27:46.470Z,14.55
2019-05-13T13:30:02.723Z,14.65
2019-05-13T13:32:27.005Z,15.18
2019-05-13T13:34:58.698Z,14.87
2019-05-13T13:37:33.683Z,14.50
2019-05-13T13:40:03.576Z,14.50
2019-05-13T13:42:35.398Z,15.08
2019-05-13T13:45:08.503Z,14.70
2019-05-13T13:47:44.982Z,14.98
2019-05-13T13:50:14.369Z,14.95
2019-05-13T13:52:46.117Z,14.63
2019-05-13T13:55:18.190Z,14.98
2019-05-13T13:57:51.296Z,15.25
2019-05-13T14:00:39.319Z,14.80
2019-05-13T14:02:55.735Z,16.12
2019-05-13T14:05:27.383Z,14.97
2019-05-13T14:08:01.528Z,14.40
2019-05-13T14:10:32.425Z,15.15
2019-05-13T14:13:04.853Z,15.58
2019-05-13T14:15:36.637Z,15.45
2019-05-13T14:18:08.320Z,14.80
2019-05-13T14:20:42.711Z,15.90
2019-05-13T14:23:12.770Z,14.73
2019-05-13T14:25:44.515Z,14.93
2019-05-13T14:28:17.637Z,15.48
2019-05-13T14:30:51.446Z,16.07
2019-05-13T14:33:22.592Z,14.23
2019-05-13T14:35:54.345Z,14.50
2019-05-13T14:38:26.115Z,14.55
2019-05-13T14:40:58.459Z,14.33
2019-05-13T14:46:02.235Z,13.98
2019-05-13T14:48:34.459Z,13.65
2019-05-13T14:51:06.534Z,11.63
2019-05-13T14:56:09.064Z,10.25
2019-05-13T14:58:41.812Z,7.65
2019-05-13T15:01:18.764Z,6.33
2019-05-13T15:03:46.533Z,5.80
2019-05-13T15:06:18.320Z,5.75
2019-05-13T15:08:52.339Z,4.90
2019-05-13T15:11:23.269Z,4.80
2019-05-13T15:13:55.027Z,5.17
2019-05-13T15:16:26.445Z,4.53
2019-05-13T15:18:58.228Z,4.08
2019-05-13T15:21:31.887Z,3.35
2019-05-13T15:24:02.433Z,3.08
2019-05-13T15:26:34.230Z,2.85
2019-05-13T15:29:06.188Z,3.52
2019-05-13T15:31:37.953Z,2.98
2019-05-13T15:34:09.702Z,3.37
2019-05-13T15:36:41.894Z,3.25
2019-05-13T15:39:14.162Z,3.20
2019-05-13T15:41:54.666Z,3.25
2019-05-13T15:44:26.144Z,3.47
2019-05-13T15:46:59.312Z,3.37
2019-05-13T15:49:32.356Z,2.72
2019-05-13T15:52:03.198Z,2.85
2019-05-13T15:54:34.829Z,2.42
2019-05-13T15:57:06.287Z,3.12
2019-05-13T15:59:38.157Z,2.55
2019-05-13T16:02:11.533Z,2.70
2019-05-13T16:04:52.645Z,3.98
2019-05-13T16:07:15.275Z,4.53
2019-05-13T16:09:46.741Z,4.45
2019-05-13T16:12:18.382Z,5.42
2019-05-13T16:14:49.763Z,5.03
2019-05-13T16:17:30.573Z,5.30
2019-05-13T16:19:53.783Z,4.30
2019-05-13T16:22:25.523Z,3.22
2019-05-13T16:24:57.231Z,3.60
2019-05-13T16:27:28.481Z,4.80
2019-05-13T16:30:02.243Z,5.10
2019-05-13T16:32:32.768Z,6.90
2019-05-13T16:35:04.635Z,7.85
2019-05-13T16:37:35.842Z,6.65
2019-05-13T16:40:11.636Z,3.35
2019-05-13T16:42:42.218Z,2.67
2019-05-13T16:45:14.738Z,3.65
2019-05-13T16:47:56.622Z,2.70
2019-05-13T16:50:19.378Z,2.42
2019-05-13T16:52:51.250Z,3.15
2019-05-13T16:55:22.689Z,2.40
2019-05-13T16:57:54.460Z,2.60
2019-05-13T17:00:26.515Z,3.65
2019-05-13T17:02:57.738Z,4.97
2019-05-13T17:05:29.324Z,3.15
2019-05-13T17:08:02.097Z,3.00
2019-05-13T17:10:33.450Z,3.35
2019-05-13T17:13:05.303Z,2.33
2019-05-13T17:15:36.535Z,2.50
2019-05-13T17:18:11.981Z,2.90
2019-05-13T17:20:41.457Z,3.10
2019-05-13T17:23:13.262Z,3.30
2019-05-13T17:25:44.876Z,3.52
2019-05-13T17:28:16.785Z,3.05
2019-05-13T17:30:48.510Z,3.52
2019-05-13T17:33:22.836Z,3.65
2019-05-13T17:35:52.465Z,2.42
2019-05-13T17:38:23.815Z,3.50
2019-05-13T17:40:55.482Z,2.67
2019-05-13T17:43:27.031Z,2.45
2019-05-13T17:45:58.494Z,2.87
2019-05-13T17:48:32.830Z,2.60
2019-05-13T17:51:02.666Z,3.08
2019-05-13T17:53:34.134Z,5.10
2019-05-13T17:56:05.289Z,5.28
2019-05-13T17:58:36.752Z,5.45
2019-05-13T18:01:08.337Z,5.37
2019-05-13T18:03:41.202Z,5.70
2019-05-13T18:06:12.149Z,6.47
2019-05-13T18:08:43.003Z,6.28
2019-05-13T18:11:13.867Z,4.53
2019-05-13T18:13:44.725Z,4.87
2019-05-13T18:16:15.684Z,4.03
2019-05-13T18:18:47.716Z,4.22
2019-05-13T18:21:18.919Z,4.35
2019-05-13T18:23:51.957Z,4.95
2019-05-13T18:26:21.934Z,4.45
2019-05-13T18:28:52.847Z,6.05
2019-05-13T18:31:24.932Z,4.87
2019-05-13T18:36:26.358Z,4.62
2019-05-13T18:38:58.070Z,3.77
2019-05-13T18:41:31.580Z,4.33
2019-05-13T18:44:02.226Z,4.30
2019-05-13T18:46:33.095Z,4.37
2019-05-13T18:49:04.703Z,3.98
2019-05-13T18:51:36.158Z,4.25
2019-05-13T18:54:08.211Z,3.75
2019-05-13T18:56:41.588Z,4.35
2019-05-13T18:59:12.951Z,4.78
2019-05-13T19:01:44.769Z,4.35
2019-05-13T19:04:15.920Z,4.12
2019-05-13T19:06:47.216Z,4.10
2019-05-13T19:09:18.420Z,4.30
2019-05-13T19:11:51.489Z,4.03
2019-05-13T19:14:22.552Z,4.75
2019-05-13T19:16:53.393Z,5.50
2019-05-13T19:19:25.191Z,6.05
2019-05-13T19:21:56.267Z,6.15
2019-05-13T19:24:31.090Z,6.30
2019-05-13T19:27:01.948Z,5.70
2019-05-13T19:29:33.868Z,6.10
2019-05-13T19:32:05.316Z,5.67
2019-05-13T19:34:37.071Z,5.85
2019-05-13T19:37:08.514Z,5.90
2019-05-13T19:39:39.385Z,5.75
2019-05-13T19:42:11.580Z,5.70
2019-05-13T19:44:43.074Z,5.83
2019-05-13T19:47:14.831Z,5.77
2019-05-13T19:49:46.921Z,6.17
2019-05-13T19:52:18.477Z,5.75
2019-05-13T19:54:51.374Z,4.60
2019-05-13T19:57:22.716Z,4.70
2019-05-13T19:59:54.111Z,4.62
2019-05-13T20:02:25.474Z,4.87
2019-05-13T20:04:56.732Z,5.10
2019-05-13T20:07:28.313Z,5.60
2019-05-13T20:10:02.607Z,5.10
2019-05-13T20:12:32.265Z,5.60
2019-05-13T20:15:03.312Z,6.22
2019-05-13T20:17:34.741Z,5.70
2019-05-13T20:20:07.735Z,5.53
2019-05-13T20:22:41.904Z,5.75
2019-05-13T20:25:13.177Z,5.60
2019-05-13T20:27:44.989Z,6.55
2019-05-13T20:30:16.588Z,6.05
2019-05-13T20:32:48.456Z,5.72
2019-05-13T20:35:21.768Z,5.90
2019-05-13T20:37:52.900Z,6.33
2019-05-13T20:40:24.650Z,5.20
2019-05-13T20:42:55.693Z,5.30
2019-05-13T20:45:27.555Z,5.97
2019-05-13T20:48:01.314Z,6.05
2019-05-13T20:50:31.732Z,7.22
2019-05-13T20:53:02.871Z,6.70
2019-05-13T20:55:33.943Z,7.20
2019-05-13T20:58:05.754Z,7.33
2019-05-13T21:00:37.148Z,6.12
2019-05-13T21:03:08.869Z,7.60
2019-05-13T21:05:41.640Z,6.67
2019-05-13T21:08:12.707Z,5.85
2019-05-13T21:10:43.988Z,6.58
2019-05-13T21:13:15.579Z,6.75
2019-05-13T21:15:47.346Z,7.00
2019-05-13T21:18:19.214Z,6.15
2019-05-13T21:20:50.267Z,6.40
2019-05-13T21:23:21.751Z,6.40
2019-05-13T21:25:53.485Z,7.95
2019-05-13T21:28:24.906Z,9.10
2019-05-13T21:30:56.292Z,8.93
2019-05-13T21:33:27.232Z,8.97
2019-05-13T21:35:58.527Z,8.35
2019-05-13T21:38:32.227Z,10.20
2019-05-13T21:41:02.595Z,8.55
2019-05-13T21:43:34.148Z,10.13
2019-05-13T21:46:05.221Z,26.85
2019-05-13T21:48:36.171Z,16.95
2019-05-13T21:51:07.984Z,10.90
2019-05-13T21:53:41.256Z,10.18
2019-05-13T21:56:12.407Z,9.20
2019-05-13T21:58:43.333Z,9.93
2019-05-13T22:01:14.685Z,9.78
2019-05-13T22:03:46.012Z,8.97
2019-05-13T22:06:17.615Z,9.67
2019-05-13T22:08:51.628Z,8.70
2019-05-13T22:11:22.465Z,9.18
2019-05-13T22:13:54.221Z,8.83
2019-05-13T22:16:25.684Z,8.75
2019-05-13T22:18:57.133Z,8.73
2019-05-13T22:21:28.438Z,8.80
2019-05-13T22:24:02.114Z,8.23
2019-05-13T22:26:33.312Z,8.80
2019-05-13T22:29:04.971Z,8.10
2019-05-13T22:31:36.739Z,9.40
2019-05-13T22:34:08.308Z,8.85
2019-05-13T22:36:39.604Z,9.33
2019-05-13T22:39:11.543Z,9.98
2019-05-13T22:41:43.466Z,9.93
2019-05-13T22:44:15.239Z,9.45
2019-05-13T22:46:46.494Z,10.30
2019-05-13T22:49:18.125Z,10.23
2019-05-13T22:51:51.485Z,10.63
2019-05-13T22:54:22.344Z,10.30
2019-05-13T22:56:54.009Z,11.08
2019-05-13T22:59:25.740Z,25.17
2019-05-13T23:01:57.646Z,44.75
2019-05-13T23:04:28.649Z,15.50
2019-05-13T23:07:01.276Z,11.03
2019-05-13T23:09:32.789Z,12.10
2019-05-13T23:12:04.590Z,16.50
2019-05-13T23:14:35.908Z,16.50
2019-05-13T23:17:07.484Z,14.63
2019-05-13T23:19:41.328Z,15.68
2019-05-13T23:22:12.096Z,14.80
2019-05-13T23:24:43.618Z,13.93
2019-05-13T23:27:15.736Z,14.37
2019-05-13T23:32:17.944Z,10.25
2019-05-13T23:34:51.094Z,10.65
2019-05-13T23:37:21.784Z,10.58
2019-05-13T23:39:53.190Z,9.93
2019-05-13T23:42:24.443Z,10.73
2019-05-13T23:44:55.790Z,11.53
2019-05-13T23:47:27.368Z,11.37
2019-05-13T23:49:59.232Z,12.25
2019-05-13T23:52:31.209Z,11.57
2019-05-13T23:55:05.806Z,12.60
2019-05-13T23:57:35.489Z,12.40
